Lane, SC (29564)

9:47 AM EDT on October 02, 2014 (GMT -0400)
Santee Circle | Change Station
CLOSE
Current Station
Personal Weather Station
Location: Moncks Corner, SC
Elevation: 79 ft
Nearby Weather Stations

Elev 79 ft 33.23 °N, 79.97 °W | Updated 2 minutes ago

Clear
Clear
71.4 °F
Feels Like 71.4 °F
N
1.0
Wind Variable Wind from NW
Gusts 2.0 mph

Today
High -- | Low -- °F
--% Chance of Precip.
Yesterday
High -- | Low -- °F
Precip. -- in
7:14 AM 7:02 PM
First Quarter, 59% visible
Pressure 30.12 in
Visibility 10.0 miles
Clouds Clear
Dew Point 70 °F
Humidity 96%
Rainfall 0.00 in
Snow Depth Not available.
UV 3 out of 12
Pollen 7.00 out of 12
Air Quality Not available.
Flu Activity Not available.
METAR KCKI 021335Z AUTO 00000KT 10SM CLR 22/21 A3012 RMK AO2

More Conditions Fewer Conditions

Pressure 30.12 in
Visibility 10.0 miles
Clouds Clear
Dew Point 70 °F
Humidity 96%
Rainfall 0.00 in
Snow Depth Not available.
UV 3 out of 12
Pollen 7.00 out of 12
Air Quality Not available.
Flu Activity Not available.
METAR KCKI 021335Z AUTO 00000KT 10SM CLR 22/21 A3012 RMK AO2

More Conditions Fewer Conditions

10-Day Weather Forecast

Almanac

Astronomy

Oct. 02, 2014 Rise Set
Actual Time 7:14 AM EDT 7:02 PM EDT
Civil Twilight 6:49 AM EDT 7:27 PM EDT
Nautical Twilight 6:20 AM EDT 7:55 PM EDT
Astronomical Twilight 5:51 AM EDT 8:24 PM EDT
Moon 2:52 PM EDT 12:45 AM EDT
Length of Visible Light 12h 37m
Length of Day
11h 48m
Tomorrow will be 2m 3s shorter.
First Quarter, 59% of the Moon is Illuminated
Today
First Quarter
Oct 8
Full
Oct 15
Last Quarter
Oct 23
New
Oct 30
First Quarter

Today's Extremes

State Highs State Lows

Community

WunderPhotos

Upload Photos

1,758,245 photos uploaded!

WunderBlogs® & News

Nearby

Snow Depth

Station Depth Elevation
No new snow has been reported.

Earthquake Activity

City Distance Mag. Time & Date
No recent earthquake activity has been reported nearby.
Minimum magnitude displayed is 2.5.

Coastal Water Temperatures

Place Temperature
No Stations Reporting

Nearby Weather Stations